Time;durP1;ratioP1;P1;durP2;ratioP2;P2;SDS_P1;SDS_P2;PMS_P1;PMS_P2;Temp;Humidity;BMP_temperature;BMP_pressure;BME280_temperature;BME280_humidity;BME280_pressure;Samples;Min_cycle;Max_cycle;Signal;HPM_P1;HPM_P2
2022/01/01 00:00:28;;;;;;;;;;;;;;;15.95;70.34;102350.81;4966086;28;19965;-87
2022/01/01 00:02:54;;;;;;;;;;;;;;;16.51;70.48;102357.28;4965976;28;19918;-88
2022/01/01 00:05:19;;;;;;;;;;;;;;;16.95;66.59;102340.59;4964576;28;19929;-87
2022/01/01 00:07:44;;;;;;;;;;;;;;;16.41;68.99;102335.00;4965096;28;19970;-88
2022/01/01 00:10:10;;;;;;;;;;;;;;;16.80;68.59;102327.63;4967366;28;20009;-87
2022/01/01 00:12:35;;;;;;;;;;;;;;;16.86;67.07;102334.63;4967774;28;19918;-87
2022/01/01 00:15:01;;;;;;;;;;;;;;;16.12;71.05;102334.56;4968472;28;20033;-93
2022/01/01 00:17:26;;;;;;;;;;;;;;;16.46;69.50;102335.66;4967099;28;19946;-89
2022/01/01 00:19:52;;;;;;;;;;;;;;;17.65;65.19;102332.38;4966537;28;20625;-90
2022/01/01 00:22:17;;;;;;;;;;;;;;;18.05;63.01;102335.69;4965344;28;19922;-89
2022/01/01 00:24:42;;;;;;;;;;;;;;;17.70;64.37;102330.25;4966535;28;19925;-90
2022/01/01 00:27:07;;;;;;;;;;;;;;;16.83;67.64;102328.38;4965729;28;19926;-91
2022/01/01 00:29:33;;;;;;;;;;;;;;;16.62;68.05;102324.88;4966060;28;19918;-89
2022/01/01 00:31:58;;;;;;;;;;;;;;;17.24;66.74;102310.84;4965820;28;19937;-89
2022/01/01 00:34:23;;;;;;;;;;;;;;;17.10;68.31;102313.41;4970912;28;19922;-90
2022/01/01 00:36:48;;;;;;;;;;;;;;;16.90;67.51;102317.16;4970002;28;19928;-86
2022/01/01 00:39:14;;;;;;;;;;;;;;;15.85;71.84;102322.19;4968378;28;20005;-89
2022/01/01 00:41:39;;;;;;;;;;;;;;;17.71;66.02;102312.88;4967652;28;19918;-92
2022/01/01 00:44:04;;;;;;;;;;;;;;;16.41;70.00;102314.97;4967142;28;19918;-90
2022/01/01 00:46:30;;;;;;;;;;;;;;;17.59;66.49;102313.56;4967258;28;19918;-91
2022/01/01 00:48:55;;;;;;;;;;;;;;;16.52;68.82;102315.34;4966407;28;19969;-88
2022/01/01 00:51:20;;;;;;;;;;;;;;;17.15;68.71;102314.03;4982448;28;20400;-91
2022/01/01 00:53:46;;;;;;;;;;;;;;;17.53;65.48;102308.41;4965059;28;19922;-93
2022/01/01 00:56:11;;;;;;;;;;;;;;;16.36;69.59;102326.13;4965681;28;19922;-92
2022/01/01 00:58:36;;;;;;;;;;;;;;;16.75;67.38;102327.00;4965390;28;19965;-93
2022/01/01 01:01:02;;;;;;;;;;;;;;;17.60;65.78;102330.84;4965800;28;19922;-92
2022/01/01 01:03:27;;;;;;;;;;;;;;;18.06;62.12;102344.81;4966431;28;20435;-93
2022/01/01 01:05:52;;;;;;;;;;;;;;;17.30;65.41;102359.75;4966389;28;19966;-92
2022/01/01 01:08:17;;;;;;;;;;;;;;;16.57;68.22;102356.09;4965557;28;19918;-92
2022/01/01 01:10:46;;;;;;;;;;;;;;;17.46;64.46;102350.75;4964520;28;19918;-93
2022/01/01 01:13:13;;;;;;;;;;;;;;;16.84;67.80;102362.94;4964194;28;19925;-92
2022/01/01 01:15:38;;;;;;;;;;;;;;;17.50;67.18;102355.97;4965063;28;20042;-92
2022/01/01 01:18:13;;;;;;;;;;;;;;;17.22;66.13;102353.78;4966074;28;19957;-92
2022/01/01 01:20:39;;;;;;;;;;;;;;;16.61;68.03;102353.16;4983046;28;19925;-91
2022/01/01 01:23:05;;;;;;;;;;;;;;;17.56;67.45;102348.38;4966101;28;20234;-92
2022/01/01 01:25:37;;;;;;;;;;;;;;;17.66;66.53;102347.84;4965884;28;20257;-91
2022/01/01 01:28:07;;;;;;;;;;;;;;;16.62;70.52;102351.28;4965880;28;19980;-90
2022/01/01 01:30:32;;;;;;;;;;;;;;;16.49;69.79;102359.22;4965300;28;19902;-90
2022/01/01 01:32:58;;;;;;;;;;;;;;;18.04;64.31;102346.72;4964659;28;20060;-91
2022/01/01 01:35:23;;;;;;;;;;;;;;;17.24;68.79;102365.53;4964721;28;19929;-90
2022/01/01 01:37:48;;;;;;;;;;;;;;;17.40;68.24;102364.75;4966117;28;19928;-92
2022/01/01 01:40:13;;;;;;;;;;;;;;;16.94;69.22;102360.66;4966196;28;20013;-92
2022/01/01 01:42:39;;;;;;;;;;;;;;;17.28;68.49;102356.19;4967992;28;19957;-91
2022/01/01 01:45:04;;;;;;;;;;;;;;;17.25;68.69;102361.81;4966894;28;19918;-94
2022/01/01 01:47:35;;;;;;;;;;;;;;;17.08;69.21;102365.44;4963579;28;19910;-90
2022/01/01 01:50:02;;;;;;;;;;;;;;;17.32;67.72;102355.06;4981040;28;19929;-89
2022/01/01 01:52:34;;;;;;;;;;;;;;;17.33;69.50;102365.06;4968648;28;19944;-89
2022/01/01 01:55:01;;;;;;;;;;;;;;;17.44;68.76;102360.88;4969042;28;19993;-90
2022/01/01 01:57:27;;;;;;;;;;;;;;;18.10;65.85;102349.16;4967889;28;19922;-91
2022/01/01 01:59:52;;;;;;;;;;;;;;;17.61;68.67;102358.13;4967958;28;19957;-91
2022/01/01 02:02:18;;;;;;;;;;;;;;;18.10;66.41;102342.78;4967331;28;19918;-91
2022/01/01 02:04:43;;;;;;;;;;;;;;;18.25;65.17;102350.13;4968545;28;20006;-90
2022/01/01 02:07:09;;;;;;;;;;;;;;;18.83;63.05;102343.16;4966623;28;20014;-90
2022/01/01 02:09:35;;;;;;;;;;;;;;;18.39;63.34;102346.63;4967578;28;19925;-91
2022/01/01 02:12:04;;;;;;;;;;;;;;;17.86;65.17;102351.31;4969401;28;20006;-90
2022/01/01 02:14:51;;;;;;;;;;;;;;;19.28;60.65;102343.31;4967303;28;20335;-91
2022/01/01 02:17:16;;;;;;;;;;;;;;;18.93;60.66;102340.78;4967531;28;19918;-90
2022/01/01 02:19:54;;;;;;;;;;;;;;;17.79;65.14;102342.56;4966434;28;19920;-90
2022/01/01 02:22:20;;;;;;;;;;;;;;;19.52;57.64;102329.94;4968087;28;19961;-91
2022/01/01 02:24:45;;;;;;;;;;;;;;;18.70;60.54;102323.78;4968956;28;19926;-90
2022/01/01 02:27:11;;;;;;;;;;;;;;;19.83;56.55;102326.16;4968964;28;19922;-90
2022/01/01 02:29:37;;;;;;;;;;;;;;;19.26;59.36;102331.50;4968706;28;20021;-91
2022/01/01 02:32:04;;;;;;;;;;;;;;;18.20;62.38;102333.94;4967789;28;19926;-90
2022/01/01 02:34:29;;;;;;;;;;;;;;;18.51;61.62;102331.31;4968759;28;19926;-89
2022/01/01 02:36:54;;;;;;;;;;;;;;;18.86;59.98;102334.78;4969106;28;20320;-91
2022/01/01 02:39:21;;;;;;;;;;;;;;;19.37;59.23;102341.84;4971330;28;19918;-89
2022/01/01 02:41:47;;;;;;;;;;;;;;;17.70;64.58;102349.41;4970123;28;19914;-89
2022/01/01 02:44:13;;;;;;;;;;;;;;;19.32;59.39;102339.38;4970840;28;19918;-90
2022/01/01 02:46:38;;;;;;;;;;;;;;;18.08;65.21;102339.25;4972767;28;19925;-89
2022/01/01 02:49:04;;;;;;;;;;;;;;;19.36;59.96;102345.56;4974155;28;19925;-90
2022/01/01 02:51:29;;;;;;;;;;;;;;;19.31;59.56;102348.59;4969655;28;19909;-89
2022/01/01 02:53:55;;;;;;;;;;;;;;;19.54;57.63;102340.81;4966646;28;20372;-88
2022/01/01 02:56:20;;;;;;;;;;;;;;;19.88;57.43;102344.22;4965869;28;20360;-88
2022/01/01 02:58:46;;;;;;;;;;;;;;;19.89;57.53;102337.75;4966124;28;19973;-88
2022/01/01 03:01:11;;;;;;;;;;;;;;;18.90;61.43;102338.22;4965901;28;19918;-89
2022/01/01 03:03:36;;;;;;;;;;;;;;;19.65;59.16;102335.53;4981814;28;19942;-88
2022/01/01 03:06:02;;;;;;;;;;;;;;;19.21;59.91;102331.78;4966046;28;20038;-88
2022/01/01 03:08:27;;;;;;;;;;;;;;;19.71;59.08;102331.53;4966307;28;19918;-88
2022/01/01 03:10:52;;;;;;;;;;;;;;;19.81;58.47;102339.13;4966018;28;19922;-88
2022/01/01 03:13:18;;;;;;;;;;;;;;;19.43;58.98;102328.63;4964754;28;19911;-88
2022/01/01 03:15:43;;;;;;;;;;;;;;;19.22;60.25;102321.69;4967051;28;19915;-88
2022/01/01 03:18:09;;;;;;;;;;;;;;;19.10;60.71;102323.34;4968110;28;19922;-89
2022/01/01 03:20:34;;;;;;;;;;;;;;;19.56;59.65;102322.38;4969055;28;19914;-88
2022/01/01 03:22:59;;;;;;;;;;;;;;;19.13;59.34;102315.81;4968777;28;19993;-88
2022/01/01 03:25:25;;;;;;;;;;;;;;;19.20;59.01;102313.56;4969127;28;19926;-89
2022/01/01 03:27:50;;;;;;;;;;;;;;;18.36;62.01;102317.53;4969270;28;19950;-88
2022/01/01 03:30:20;;;;;;;;;;;;;;;19.08;60.15;102315.22;4968940;28;19914;-88
2022/01/01 03:32:46;;;;;;;;;;;;;;;18.86;61.50;102315.59;4969958;28;19925;-88
2022/01/01 03:35:11;;;;;;;;;;;;;;;18.33;63.78;102325.06;4969833;28;19922;-88
2022/01/01 03:37:36;;;;;;;;;;;;;;;19.40;60.00;102309.63;4970361;28;19918;-88
2022/01/01 03:40:02;;;;;;;;;;;;;;;18.92;60.15;102309.75;4970610;28;19921;-88
2022/01/01 03:42:27;;;;;;;;;;;;;;;19.00;59.81;102319.38;4971264;28;19957;-89
2022/01/01 03:44:53;;;;;;;;;;;;;;;18.64;61.21;102324.16;4971367;28;19922;-88
2022/01/01 03:47:18;;;;;;;;;;;;;;;19.09;59.55;102321.56;4972841;28;19941;-88
2022/01/01 03:49:43;;;;;;;;;;;;;;;18.82;60.54;102313.09;4989141;28;19918;-88
2022/01/01 03:52:09;;;;;;;;;;;;;;;18.94;60.11;102316.00;4988264;28;19950;-88
2022/01/01 03:54:35;;;;;;;;;;;;;;;18.62;61.10;102323.38;4970242;28;19937;-89
2022/01/01 03:57:00;;;;;;;;;;;;;;;18.65;61.19;102317.72;4970760;28;20021;-88
2022/01/01 03:59:25;;;;;;;;;;;;;;;18.76;60.57;102320.69;4970280;28;19918;-88
2022/01/01 04:01:51;;;;;;;;;;;;;;;18.64;60.20;102318.66;4970881;28;19914;-88
2022/01/01 04:04:16;;;;;;;;;;;;;;;18.17;62.03;102320.44;4969154;28;19948;-88
2022/01/01 04:06:41;;;;;;;;;;;;;;;19.98;55.20;102320.69;4969068;28;20447;-89
2022/01/01 04:09:07;;;;;;;;;;;;;;;19.75;55.61;102331.22;4970116;28;19918;-88
2022/01/01 04:11:32;;;;;;;;;;;;;;;19.65;56.30;102332.78;4969602;28;19922;-88
2022/01/01 04:13:57;;;;;;;;;;;;;;;18.94;59.15;102335.22;4969701;28;19918;-88
2022/01/01 04:16:23;;;;;;;;;;;;;;;19.37;57.49;102325.38;4969543;28;19918;-89
2022/01/01 04:18:48;;;;;;;;;;;;;;;19.90;55.24;102334.91;4969230;28;19922;-87
2022/01/01 04:21:15;;;;;;;;;;;;;;;19.47;56.96;102327.47;4968550;28;19919;-88
2022/01/01 04:23:40;;;;;;;;;;;;;;;19.11;57.41;102322.34;4968847;28;19969;-88
2022/01/01 04:26:09;;;;;;;;;;;;;;;19.46;56.85;102320.22;4969353;28;19922;-88
2022/01/01 04:28:34;;;;;;;;;;;;;;;19.50;57.40;102323.63;4969650;28;19925;-88
2022/01/01 04:31:00;;;;;;;;;;;;;;;19.59;56.08;102333.16;4970570;28;19922;-88
2022/01/01 04:33:25;;;;;;;;;;;;;;;19.32;57.83;102333.88;4970212;28;19953;-88
2022/01/01 04:35:50;;;;;;;;;;;;;;;19.42;56.98;102329.59;4968671;28;19918;-89
2022/01/01 04:38:36;;;;;;;;;;;;;;;19.36;57.75;102338.22;4969428;28;19961;-88
2022/01/01 04:41:01;;;;;;;;;;;;;;;18.47;60.27;102348.94;4986497;28;19918;-88
2022/01/01 04:43:26;;;;;;;;;;;;;;;20.10;55.36;102346.50;4969810;28;19987;-88
2022/01/01 04:45:52;;;;;;;;;;;;;;;19.75;56.43;102342.22;4970057;28;20324;-88
2022/01/01 04:48:17;;;;;;;;;;;;;;;18.90;57.82;102354.69;4969475;28;19918;-88
2022/01/01 04:50:42;;;;;;;;;;;;;;;19.65;55.76;102347.38;4970201;28;19933;-88
2022/01/01 04:53:07;;;;;;;;;;;;;;;20.19;53.94;102349.50;4970089;28;19921;-88
2022/01/01 04:55:33;;;;;;;;;;;;;;;19.41;57.98;102349.78;4969155;28;19989;-88
2022/01/01 04:57:58;;;;;;;;;;;;;;;19.55;57.57;102350.78;4968403;28;20025;-88
2022/01/01 05:00:24;;;;;;;;;;;;;;;19.68;55.59;102350.94;4967525;28;19914;-88
2022/01/01 05:02:49;;;;;;;;;;;;;;;20.16;54.70;102335.97;4985104;28;19918;-88
2022/01/01 05:05:14;;;;;;;;;;;;;;;19.41;56.38;102335.19;4969100;28;20582;-88
2022/01/01 05:07:39;;;;;;;;;;;;;;;18.89;57.73;102340.09;4968105;28;20411;-88
2022/01/01 05:10:05;;;;;;;;;;;;;;;19.04;57.88;102338.31;4968131;28;19918;-87
2022/01/01 05:12:30;;;;;;;;;;;;;;;18.18;60.88;102329.56;4969139;28;19922;-89
2022/01/01 05:14:57;;;;;;;;;;;;;;;19.05;56.51;102334.59;4970084;28;20384;-88
2022/01/01 05:17:22;;;;;;;;;;;;;;;19.75;54.95;102330.34;4971228;28;19925;-88
2022/01/01 05:19:47;;;;;;;;;;;;;;;19.28;56.43;102324.09;4970453;28;19918;-89
2022/01/01 05:22:13;;;;;;;;;;;;;;;19.68;55.25;102328.97;4972134;28;19925;-89
2022/01/01 05:24:38;;;;;;;;;;;;;;;19.53;56.39;102317.94;4972134;28;19924;-88
2022/01/01 05:27:03;;;;;;;;;;;;;;;19.13;57.22;102326.78;4970727;28;19919;-88
2022/01/01 05:29:29;;;;;;;;;;;;;;;19.88;54.70;102325.00;4971285;28;19972;-88
2022/01/01 05:31:55;;;;;;;;;;;;;;;19.74;54.98;102328.59;4971013;28;20292;-88
2022/01/01 05:34:20;;;;;;;;;;;;;;;19.29;55.46;102315.75;4969493;28;19922;-89
2022/01/01 05:36:45;;;;;;;;;;;;;;;18.47;58.53;102316.91;4968426;28;20309;-89
2022/01/01 05:39:11;;;;;;;;;;;;;;;18.69;57.96;102301.94;4967402;28;19922;-88
2022/01/01 05:41:36;;;;;;;;;;;;;;;18.80;58.05;102293.13;4968616;28;20324;-89
2022/01/01 05:44:01;;;;;;;;;;;;;;;18.74;57.83;102299.84;4968676;28;20394;-89
2022/01/01 05:46:29;;;;;;;;;;;;;;;18.70;58.36;102287.28;4968482;28;19969;-88
2022/01/01 05:48:54;;;;;;;;;;;;;;;19.01;57.14;102296.44;4968505;28;19937;-88
2022/01/01 05:51:20;;;;;;;;;;;;;;;18.48;59.11;102306.81;4969694;28;19922;-88
2022/01/01 05:53:45;;;;;;;;;;;;;;;18.54;59.03;102307.38;4967583;28;19918;-88
2022/01/01 05:56:10;;;;;;;;;;;;;;;18.71;57.73;102316.47;4968350;28;20261;-88
2022/01/01 05:58:36;;;;;;;;;;;;;;;18.84;57.67;102305.66;4968341;28;19919;-88
2022/01/01 06:01:01;;;;;;;;;;;;;;;18.88;57.51;102307.28;4967920;28;20296;-88
2022/01/01 06:03:26;;;;;;;;;;;;;;;18.69;56.84;102316.56;4967709;28;19925;-87
2022/01/01 06:05:52;;;;;;;;;;;;;;;19.04;56.13;102308.13;4968351;28;19999;-87
2022/01/01 06:08:17;;;;;;;;;;;;;;;19.08;56.40;102306.97;4967945;28;20283;-88
2022/01/01 06:10:43;;;;;;;;;;;;;;;18.76;57.01;102317.94;4967446;28;19933;-88
2022/01/01 06:13:08;;;;;;;;;;;;;;;19.10;56.42;102318.72;4968374;28;19918;-87
2022/01/01 06:15:33;;;;;;;;;;;;;;;18.43;58.30;102320.78;4967889;28;19918;-88
2022/01/01 06:17:58;;;;;;;;;;;;;;;18.68;58.57;102325.75;4967440;28;19922;-88
2022/01/01 06:20:24;;;;;;;;;;;;;;;18.51;58.51;102328.56;4967205;28;19933;-88
2022/01/01 06:22:49;;;;;;;;;;;;;;;19.21;56.15;102315.34;4966659;28;20008;-88
2022/01/01 06:25:15;;;;;;;;;;;;;;;17.98;60.74;102326.06;4967462;28;19933;-88
2022/01/01 06:27:40;;;;;;;;;;;;;;;17.80;61.98;102325.19;4966703;28;19918;-88
2022/01/01 06:30:05;;;;;;;;;;;;;;;17.98;60.57;102317.84;4967026;28;19922;-88
2022/01/01 06:32:31;;;;;;;;;;;;;;;18.36;59.69;102323.03;4966438;28;19918;-88
2022/01/01 06:34:57;;;;;;;;;;;;;;;18.19;59.98;102325.81;4966870;28;19922;-88
2022/01/01 06:37:22;;;;;;;;;;;;;;;18.56;58.47;102324.59;4966981;28;19918;-88
2022/01/01 06:39:47;;;;;;;;;;;;;;;18.04;59.93;102322.97;4966944;28;19914;-88
2022/01/01 06:42:12;;;;;;;;;;;;;;;18.20;59.79;102323.00;4967148;28;19958;-88
2022/01/01 06:44:38;;;;;;;;;;;;;;;17.95;60.86;102323.50;4966635;28;19918;-88
2022/01/01 06:47:03;;;;;;;;;;;;;;;18.45;59.06;102323.44;4967769;28;20373;-88
2022/01/01 06:49:28;;;;;;;;;;;;;;;18.15;59.86;102324.25;4967056;28;19980;-87
2022/01/01 06:51:53;;;;;;;;;;;;;;;18.06;59.98;102318.28;4972800;28;19919;-88
2022/01/01 06:54:19;;;;;;;;;;;;;;;17.90;60.58;102320.13;4973910;28;19930;-87
2022/01/01 06:56:44;;;;;;;;;;;;;;;17.86;60.47;102330.31;4973594;28;19942;-88
2022/01/01 06:59:09;;;;;;;;;;;;;;;17.58;61.46;102317.25;4972167;28;19929;-88
2022/01/01 07:01:35;;;;;;;;;;;;;;;18.40;58.62;102324.63;4971989;28;19926;-87
2022/01/01 07:04:00;;;;;;;;;;;;;;;18.33;58.56;102328.69;4970518;28;20475;-88
2022/01/01 07:06:26;;;;;;;;;;;;;;;18.41;59.16;102339.19;4970952;28;20008;-88
2022/01/01 07:08:51;;;;;;;;;;;;;;;18.57;58.20;102329.13;4971105;28;19950;-87
2022/01/01 07:11:16;;;;;;;;;;;;;;;18.62;58.20;102328.84;4970325;28;19918;-88
2022/01/01 07:13:41;;;;;;;;;;;;;;;18.67;56.84;102331.31;4970510;28;19914;-88
2022/01/01 07:16:06;;;;;;;;;;;;;;;18.33;58.70;102334.16;4969903;28;19925;-88
2022/01/01 07:18:32;;;;;;;;;;;;;;;18.94;56.27;102326.09;4969492;28;19914;-88
2022/01/01 07:20:57;;;;;;;;;;;;;;;19.12;55.77;102325.00;4969868;28;20368;-88
2022/01/01 07:23:22;;;;;;;;;;;;;;;18.75;56.59;102327.16;4969778;28;19918;-88
2022/01/01 07:25:48;;;;;;;;;;;;;;;18.44;58.35;102336.28;4970344;28;19930;-87
2022/01/01 07:28:16;;;;;;;;;;;;;;;18.58;57.43;102338.22;4970602;28;20410;-88
2022/01/01 07:30:41;;;;;;;;;;;;;;;18.12;58.26;102339.00;4970561;28;19993;-88
2022/01/01 07:33:06;;;;;;;;;;;;;;;18.66;57.48;102338.69;4970678;28;19953;-88
2022/01/01 07:35:36;;;;;;;;;;;;;;;18.51;57.94;102342.28;4969110;28;19958;-89
2022/01/01 07:38:01;;;;;;;;;;;;;;;18.62;57.52;102339.81;4969979;28;19954;-88
2022/01/01 07:40:29;;;;;;;;;;;;;;;17.70;60.17;102345.81;4970556;28;19926;-88
2022/01/01 07:42:54;;;;;;;;;;;;;;;18.23;58.24;102349.34;4968557;28;19925;-88
2022/01/01 07:45:19;;;;;;;;;;;;;;;18.70;57.60;102347.59;4969339;28;19949;-88
2022/01/01 07:47:45;;;;;;;;;;;;;;;17.87;58.98;102356.75;4970047;28;19913;-88
2022/01/01 07:50:11;;;;;;;;;;;;;;;18.33;58.38;102346.97;4970170;28;19922;-88
2022/01/01 07:52:37;;;;;;;;;;;;;;;18.46;58.14;102342.53;4970146;28;20013;-87
2022/01/01 07:55:02;;;;;;;;;;;;;;;18.29;58.43;102342.63;4968735;28;19922;-87
2022/01/01 07:57:27;;;;;;;;;;;;;;;18.48;58.38;102342.47;4969468;28;19925;-88
2022/01/01 07:59:53;;;;;;;;;;;;;;;18.82;56.54;102337.78;4970311;28;19922;-87
2022/01/01 08:02:18;;;;;;;;;;;;;;;18.34;58.03;102340.50;4969326;28;19915;-88
2022/01/01 08:04:43;;;;;;;;;;;;;;;18.00;59.41;102325.97;4969525;28;19988;-87
2022/01/01 08:07:08;;;;;;;;;;;;;;;18.92;56.75;102330.81;4970165;28;19922;-86
2022/01/01 08:09:35;;;;;;;;;;;;;;;18.87;56.83;102346.63;4968726;28;20364;-86
2022/01/01 08:12:00;;;;;;;;;;;;;;;18.51;57.59;102347.75;4969007;28;19925;-88
2022/01/01 08:14:27;;;;;;;;;;;;;;;18.38;58.63;102351.19;4969243;28;20272;-88
2022/01/01 08:16:59;;;;;;;;;;;;;;;18.25;58.99;102350.13;4969495;28;19925;-87
2022/01/01 08:19:26;;;;;;;;;;;;;;;18.29;58.56;102359.06;4969625;28;19918;-88
2022/01/01 08:21:54;;;;;;;;;;;;;;;19.01;56.86;102351.28;4969982;28;19925;-87
2022/01/01 08:24:19;;;;;;;;;;;;;;;18.44;58.28;102358.19;4970190;28;19970;-88
2022/01/01 08:26:45;;;;;;;;;;;;;;;18.67;57.99;102359.63;4970103;28;19918;-87
2022/01/01 08:29:10;;;;;;;;;;;;;;;18.43;58.09;102359.16;4968727;28;19981;-87
2022/01/01 08:31:35;;;;;;;;;;;;;;;17.92;60.09;102362.00;4970056;28;19933;-88
2022/01/01 08:34:01;;;;;;;;;;;;;;;18.59;57.40;102356.44;4969387;28;19973;-89
2022/01/01 08:36:26;;;;;;;;;;;;;;;18.49;57.72;102344.22;4969865;28;20020;-88
2022/01/01 08:38:51;;;;;;;;;;;;;;;17.82;60.44;102336.06;4970111;28;19914;-86
2022/01/01 08:41:17;;;;;;;;;;;;;;;18.18;60.02;102337.75;4970052;28;19982;-87
2022/01/01 08:43:42;;;;;;;;;;;;;;;18.62;58.62;102325.25;4969828;28;19925;-88
2022/01/01 08:46:07;;;;;;;;;;;;;;;18.74;57.55;102319.03;4969588;28;20383;-86
2022/01/01 08:48:33;;;;;;;;;;;;;;;17.80;60.96;102329.75;4968734;28;19922;-88
2022/01/01 08:50:58;;;;;;;;;;;;;;;18.01;59.69;102330.47;4968720;28;19925;-89
2022/01/01 08:53:23;;;;;;;;;;;;;;;17.82;60.65;102311.41;4968228;28;20009;-87
2022/01/01 08:55:48;;;;;;;;;;;;;;;17.86;61.09;102310.25;4968455;28;19938;-86
2022/01/01 08:58:13;;;;;;;;;;;;;;;18.00;59.52;102315.91;4967953;28;20364;-87
2022/01/01 09:00:39;;;;;;;;;;;;;;;17.72;61.06;102316.50;4969102;28;20300;-88
2022/01/01 09:03:04;;;;;;;;;;;;;;;18.69;56.88;102318.41;4968827;28;19919;-89
2022/01/01 09:05:29;;;;;;;;;;;;;;;18.18;60.30;102318.59;4969260;28;19985;-89
2022/01/01 09:07:54;;;;;;;;;;;;;;;18.15;59.82;102326.97;4986657;28;19929;-89
2022/01/01 09:10:20;;;;;;;;;;;;;;;18.11;59.29;102319.91;4969584;28;19918;-89
2022/01/01 09:12:46;;;;;;;;;;;;;;;17.99;59.79;102314.13;4969019;28;19919;-90
2022/01/01 09:15:11;;;;;;;;;;;;;;;17.53;61.31;102317.50;4968692;28;19941;-89
2022/01/01 09:17:36;;;;;;;;;;;;;;;18.03;59.65;102306.63;4970197;28;19918;-89
2022/01/01 09:20:02;;;;;;;;;;;;;;;18.88;57.35;102316.38;4969694;28;19918;-88
2022/01/01 09:22:28;;;;;;;;;;;;;;;17.22;62.40;102312.75;4969400;28;19919;-88
2022/01/01 09:24:53;;;;;;;;;;;;;;;17.73;62.04;102299.13;4969599;28;19930;-89
2022/01/01 09:27:19;;;;;;;;;;;;;;;17.40;63.44;102293.63;4969020;28;19976;-89
2022/01/01 09:29:44;;;;;;;;;;;;;;;17.23;64.28;102303.59;4970226;28;20260;-88
2022/01/01 09:32:10;;;;;;;;;;;;;;;17.24;63.65;102286.22;4966980;28;19958;-88
2022/01/01 09:34:35;;;;;;;;;;;;;;;17.29;63.95;102285.97;4964165;28;20246;-89
2022/01/01 09:37:01;;;;;;;;;;;;;;;17.56;62.21;102279.97;4963146;28;19925;-88
2022/01/01 09:39:26;;;;;;;;;;;;;;;17.60;63.40;102268.78;4963574;28;19941;-87
2022/01/01 09:41:51;;;;;;;;;;;;;;;17.68;62.25;102271.13;4964662;28;19918;-90
2022/01/01 09:44:18;;;;;;;;;;;;;;;17.03;64.26;102290.97;4964454;28;19924;-90
2022/01/01 09:46:46;;;;;;;;;;;;;;;17.30;63.42;102277.69;4963810;28;20016;-90
2022/01/01 09:49:16;;;;;;;;;;;;;;;17.78;61.52;102274.22;4981578;28;20614;-88
2022/01/01 09:51:42;;;;;;;;;;;;;;;17.46;63.46;102277.75;4965119;28;19953;-90
2022/01/01 09:54:08;;;;;;;;;;;;;;;17.49;62.58;102287.66;4965992;28;19918;-90
2022/01/01 09:56:33;;;;;;;;;;;;;;;18.06;60.65;102279.94;4967882;28;19977;-88
2022/01/01 09:58:58;;;;;;;;;;;;;;;18.20;59.99;102286.50;4970714;28;19918;-89
2022/01/01 10:01:24;;;;;;;;;;;;;;;17.54;64.22;102288.28;4967031;28;20356;-88
2022/01/01 10:03:50;;;;;;;;;;;;;;;17.78;61.07;102285.16;4965616;28;20008;-90
2022/01/01 10:06:16;;;;;;;;;;;;;;;17.89;62.14;102282.78;4965508;28;19914;-90
2022/01/01 10:08:44;;;;;;;;;;;;;;;18.22;60.94;102282.72;4964984;28;19914;-88
2022/01/01 10:11:09;;;;;;;;;;;;;;;18.05;62.15;102275.44;4965072;28;19954;-92
2022/01/01 10:13:37;;;;;;;;;;;;;;;18.85;57.83;102280.00;4964002;28;19925;-88
2022/01/01 10:16:03;;;;;;;;;;;;;;;17.77;62.85;102284.28;4965234;28;19918;-89
2022/01/01 10:18:33;;;;;;;;;;;;;;;18.36;61.49;102281.03;4964310;28;20017;-90
2022/01/01 10:21:03;;;;;;;;;;;;;;;18.11;60.56;102279.69;4965234;28;19918;-91
2022/01/01 10:23:31;;;;;;;;;;;;;;;18.53;60.16;102277.31;4968683;28;19925;-92
2022/01/01 10:29:05;;;;;;;;;;;;;;;17.97;61.40;102287.81;4986026;28;19928;-93
2022/01/01 10:31:32;;;;;;;;;;;;;;;18.19;60.67;102285.63;4968190;28;19923;-93
2022/01/01 10:33:58;;;;;;;;;;;;;;;18.07;60.91;102289.03;4968716;28;19926;-94
2022/01/01 10:36:27;;;;;;;;;;;;;;;17.76;63.80;102274.31;4968336;28;19953;-93
2022/01/01 10:39:05;;;;;;;;;;;;;;;18.29;61.00;102285.09;4967740;28;19915;-95
2022/01/01 10:42:06;;;;;;;;;;;;;;;19.27;58.10;102281.16;4967967;28;19922;-92
2022/01/01 10:44:38;;;;;;;;;;;;;;;18.67;60.71;102274.63;4965826;28;20061;-93
2022/01/01 10:47:14;;;;;;;;;;;;;;;19.15;58.11;102270.94;4968990;28;19925;-94
2022/01/01 10:52:22;;;;;;;;;;;;;;;18.75;59.31;102272.34;4986830;28;20001;-94
2022/01/01 10:54:53;;;;;;;;;;;;;;;19.40;57.53;102267.53;4966791;28;20012;-96
2022/01/01 10:58:32;;;;;;;;;;;;;;;18.80;59.12;102276.66;4967275;28;19929;-95
2022/01/01 11:12:07;;;;;;;;;;;;;;;18.71;58.36;102256.16;5153507;23;19934;-96
2022/01/01 11:17:11;;;;;;;;;;;;;;;19.51;56.69;102261.41;4980701;23;19926;-94
2022/01/01 11:19:40;;;;;;;;;;;;;;;19.04;58.67;102245.03;4958805;29;19919;-94
2022/01/01 11:22:06;;;;;;;;;;;;;;;19.08;58.05;102235.66;4967957;29;20193;-95
2022/01/01 11:24:33;;;;;;;;;;;;;;;18.64;60.43;102221.88;4948653;29;19914;-94
2022/01/01 11:27:02;;;;;;;;;;;;;;;19.06;59.01;102221.13;4948326;28;20395;-94
2022/01/01 11:29:29;;;;;;;;;;;;;;;19.07;58.19;102214.69;4951484;29;19918;-93
2022/01/01 11:32:08;;;;;;;;;;;;;;;19.03;59.41;102206.75;4953911;29;19927;-94
2022/01/01 11:34:38;;;;;;;;;;;;;;;18.82;59.88;102211.66;4951494;28;20392;-94
2022/01/01 11:37:05;;;;;;;;;;;;;;;19.21;58.39;102213.81;4953255;29;19923;-94
2022/01/01 11:39:32;;;;;;;;;;;;;;;18.41;61.26;102214.03;4956121;23;19931;-93
2022/01/01 11:42:14;;;;;;;;;;;;;;;18.85;60.46;102225.16;4918869;29;20349;-93
2022/01/01 11:44:50;;;;;;;;;;;;;;;19.62;57.31;102224.03;4934059;29;20006;-95
2022/01/01 11:47:34;;;;;;;;;;;;;;;18.95;59.17;102215.44;4931695;29;19919;-96
2022/01/01 11:50:04;;;;;;;;;;;;;;;18.78;60.01;102211.84;4928122;29;19985;-95
2022/01/01 11:52:38;;;;;;;;;;;;;;;19.39;57.69;102210.91;4927135;29;20055;-92
2022/01/01 11:55:15;;;;;;;;;;;;;;;19.13;58.14;102219.78;4926808;29;19915;-92
2022/01/01 11:57:58;;;;;;;;;;;;;;;19.42;57.64;102216.22;4926937;29;19934;-91
2022/01/01 12:00:24;;;;;;;;;;;;;;;18.85;59.05;102225.16;4926248;29;20054;-90
2022/01/01 12:03:10;;;;;;;;;;;;;;;20.08;55.33;102206.47;4911321;29;19945;-94
2022/01/01 12:05:35;;;;;;;;;;;;;;;18.89;59.11;102204.84;4928681;29;19986;-93
2022/01/01 12:08:06;;;;;;;;;;;;;;;18.74;59.55;102202.03;4928528;29;19989;-93
2022/01/01 12:10:36;;;;;;;;;;;;;;;19.08;58.09;102219.19;4926180;29;19919;-92
2022/01/01 12:13:05;;;;;;;;;;;;;;;19.48;57.05;102208.44;4925601;29;19919;-88
2022/01/01 12:15:35;;;;;;;;;;;;;;;18.98;58.56;102207.03;4927054;29;19969;-93
2022/01/01 12:18:05;;;;;;;;;;;;;;;19.38;58.21;102187.19;4925904;29;19919;-91
2022/01/01 12:20:37;;;;;;;;;;;;;;;19.28;57.43;102184.16;4926281;29;19925;-93
2022/01/01 12:23:12;;;;;;;;;;;;;;;19.12;58.42;102182.34;4928068;29;20369;-93
2022/01/01 12:25:41;;;;;;;;;;;;;;;19.57;57.18;102168.56;4927751;29;19920;-91
2022/01/01 12:28:08;;;;;;;;;;;;;;;18.75;59.34;102179.13;4933476;29;19977;-91
2022/01/01 12:30:38;;;;;;;;;;;;;;;19.46;57.91;102166.50;4927677;29;19929;-93
2022/01/01 12:33:04;;;;;;;;;;;;;;;18.81;58.50;102172.38;4927420;29;19923;-90
2022/01/01 12:35:49;;;;;;;;;;;;;;;18.21;61.57;102171.38;4928393;29;19919;-91
2022/01/01 12:38:19;;;;;;;;;;;;;;;19.15;58.29;102161.22;4926529;29;20030;-90
2022/01/01 12:40:56;;;;;;;;;;;;;;;19.54;56.90;102167.88;4928441;29;19983;-93
2022/01/01 12:43:21;;;;;;;;;;;;;;;19.13;57.93;102153.94;4928731;29;19991;-93
2022/01/01 12:45:50;;;;;;;;;;;;;;;18.77;58.59;102163.44;4927515;29;19970;-92
2022/01/01 12:48:18;;;;;;;;;;;;;;;19.24;57.86;102156.00;4925554;29;19950;-91
2022/01/01 12:50:43;;;;;;;;;;;;;;;19.10;58.22;102167.00;4925628;29;19969;-91
2022/01/01 12:53:09;;;;;;;;;;;;;;;18.72;59.14;102173.84;4928086;29;19919;-90